Elelim Airport


Codes: ID-ELR/ELR
Name: Elelim Airport
City: Elelim-Papua Island
Country: Indonesia
Elevation: 1490 ft.

Photos at Elelim Airport


   Photos courtesy of SpottingLog. You can add your own sightings and photos by signing up for a free trial today.



No photos found.

Weather at Elelim Airport


Time (UTC)DescriptionTempratureWindCloud coverageVisibilityPressureHumidity
23-May-2024 21:00Light Rain23°C2 mph, S98%10000m1012hPa98%
24-May-2024 00:00Light Rain26°C2 mph, NE97%10000m1013hPa89%
24-May-2024 03:00Light Rain29°C4 mph, NE96%10000m1010hPa75%
24-May-2024 06:00Overcast Clouds29°C2 mph, NE98%10000m1008hPa75%
24-May-2024 09:00Light Rain25°C2 mph, SW100%10000m1010hPa96%
24-May-2024 12:00Light Rain24°C4 mph, SW93%10000m1012hPa96%
24-May-2024 15:00Light Rain23°C4 mph, SW97%10000m1012hPa95%
24-May-2024 18:00Light Rain22°C4 mph, SW84%10000m1011hPa95%
24-May-2024 21:00Broken Clouds22°C4 mph, SW72%10000m1012hPa93%
25-May-2024 00:00Light Rain29°C4 mph, NE47%10000m1012hPa71%
25-May-2024 03:00Light Rain32°C4 mph, NE11%10000m1010hPa61%
25-May-2024 06:00Light Rain28°C2 mph, SE42%7188m1008hPa86%
25-May-2024 09:00Moderate Rain24°C4 mph, SW100%6412m1011hPa96%
25-May-2024 12:00Moderate Rain23°C4 mph, SW100%10000m1013hPa96%
25-May-2024 15:00Light Rain22°C4 mph, SW78%10000m1012hPa96%
25-May-2024 18:00Light Rain22°C4 mph, SW78%10000m1011hPa94%
25-May-2024 21:00Light Rain22°C4 mph, SW87%10000m1013hPa93%
26-May-2024 00:00Broken Clouds29°C4 mph, NE61%10000m1013hPa68%
26-May-2024 03:00Light Rain32°C4 mph, NE13%10000m1010hPa59%
26-May-2024 06:00Light Rain28°C0 mph, SE53%7866m1009hPa85%
26-May-2024 09:00Moderate Rain24°C4 mph, SW78%10000m1011hPa95%
26-May-2024 12:00Light Rain23°C4 mph, SW89%10000m1013hPa96%
26-May-2024 15:00Light Rain23°C2 mph, SW100%10000m1012hPa96%
26-May-2024 18:00Moderate Rain23°C4 mph, SW100%10000m1011hPa98%
26-May-2024 21:00Light Rain23°C4 mph, SW100%10000m1012hPa96%
27-May-2024 00:00Overcast Clouds29°C2 mph, NE91%10000m1012hPa70%
27-May-2024 03:00Scattered Clouds32°C4 mph, NE46%10000m1009hPa59%
27-May-2024 06:00Light Rain30°C2 mph, NE70%10000m1008hPa71%
27-May-2024 09:00Light Rain24°C4 mph, SW79%10000m1010hPa93%
27-May-2024 12:00Light Rain23°C4 mph, SW89%10000m1012hPa91%
27-May-2024 15:00Overcast Clouds23°C4 mph, SW100%10000m1011hPa86%
27-May-2024 18:00Overcast Clouds22°C4 mph, SW100%10000m1010hPa81%
27-May-2024 21:00Overcast Clouds22°C4 mph, SW98%10000m1012hPa79%
28-May-2024 00:00Broken Clouds29°C4 mph, NE78%10000m1012hPa62%
28-May-2024 03:00Scattered Clouds32°C4 mph, NE27%10000m1009hPa56%
28-May-2024 06:00Scattered Clouds31°C4 mph, NE32%10000m1008hPa59%
28-May-2024 09:00Light Rain25°C4 mph, SW67%10000m1010hPa83%
28-May-2024 12:00Light Rain25°C4 mph, SW79%10000m1012hPa83%
28-May-2024 15:00Overcast Clouds24°C2 mph, SW94%10000m1011hPa83%
28-May-2024 18:00Overcast Clouds24°C2 mph, SW96%10000m1010hPa83%